Time;durP1;ratioP1;P1;durP2;ratioP2;P2;SDS_P1;SDS_P2;PMS_P1;PMS_P2;Temp;Humidity;BMP_temperature;BMP_pressure;BME280_temperature;BME280_humidity;BME280_pressure;Samples;Min_cycle;Max_cycle;Signal;HPM_P1;HPM_P2
2023/07/16 00:02:05;;;;;;;5.05;3.40;;;;;;;25.10;nan;62369.59;5032512;28;20584;-61
2023/07/16 00:04:31;;;;;;;3.97;3.20;;;;;;;25.04;nan;62248.25;5032017;28;20225;-65
2023/07/16 00:06:57;;;;;;;3.90;2.83;;;;;;;24.79;nan;62336.75;5032017;28;20642;-63
2023/07/16 00:09:22;;;;;;;4.78;2.75;;;;;;;24.72;nan;62339.81;5032311;28;20175;-63
2023/07/16 00:11:47;;;;;;;3.90;2.92;;;;;;;24.78;nan;62247.34;5032419;28;20623;-65
2023/07/16 00:14:13;;;;;;;4.97;3.00;;;;;;;24.73;nan;62366.53;5032576;28;20182;-65
2023/07/16 00:16:38;;;;;;;8.05;3.30;;;;;;;24.60;nan;62154.19;5032022;28;20629;-64
2023/07/16 00:19:04;;;;;;;5.47;3.30;;;;;;;24.81;nan;62195.84;5032228;28;20181;-61
2023/07/16 00:21:30;;;;;;;4.18;3.20;;;;;;;24.85;nan;62304.97;5032010;28;20638;-62
2023/07/16 00:23:55;;;;;;;5.43;3.05;;;;;;;24.74;nan;62203.00;5032146;28;20236;-66
2023/07/16 00:26:21;;;;;;;4.00;3.17;;;;;;;24.73;nan;62299.13;5031949;28;20172;-63
2023/07/16 00:28:47;;;;;;;9.82;3.10;;;;;;;24.71;nan;62199.56;5032182;28;20175;-64
2023/07/16 00:31:12;;;;;;;5.10;3.40;;;;;;;24.62;nan;62244.75;5032412;28;20168;-65
2023/07/16 00:33:37;;;;;;;3.90;2.90;;;;;;;24.70;nan;62217.28;5032028;28;20171;-66
2023/07/16 00:36:03;;;;;;;3.70;2.85;;;;;;;24.70;nan;62206.81;5030603;28;20578;-68
2023/07/16 00:38:28;;;;;;;4.47;3.15;;;;;;;24.74;nan;62231.75;5031588;28;20207;-63
2023/07/16 00:40:53;;;;;;;4.20;3.40;;;;;;;24.63;nan;62236.03;5031832;28;20210;-62
2023/07/16 00:43:19;;;;;;;6.18;3.10;;;;;;;24.30;nan;62326.38;5031631;28;20259;-65
2023/07/16 00:45:45;;;;;;;4.65;3.13;;;;;;;24.45;nan;62173.13;5031894;28;20708;-65
2023/07/16 00:48:12;;;;;;;7.40;3.40;;;;;;;24.04;nan;62239.81;5031831;28;20609;-64
2023/07/16 00:50:39;;;;;;;4.85;3.15;;;;;;;24.25;nan;62218.22;5031445;28;20175;-63
2023/07/16 00:53:08;;;;;;;5.50;3.05;;;;;;;24.27;nan;62246.66;5032066;28;20179;-63
2023/07/16 00:55:36;;;;;;;3.55;2.75;;;;;;;24.26;nan;62136.38;5032352;28;20262;-63
2023/07/16 00:58:07;;;;;;;5.65;3.35;;;;;;;24.16;nan;62080.59;5031428;28;20709;-64
2023/07/16 01:00:34;;;;;;;5.22;3.13;;;;;;;24.28;nan;62250.41;5031797;28;20171;-63
2023/07/16 01:03:02;;;;;;;3.33;2.90;;;;;;;23.33;nan;62177.63;5031675;28;20249;-64
2023/07/16 01:05:34;;;;;;;4.97;3.72;;;;;;;24.04;nan;62247.06;5031533;28;20719;-64
2023/07/16 01:08:04;;;;;;;3.80;3.20;;;;;;;24.12;nan;62412.88;5031569;28;20175;-65
2023/07/16 01:10:31;;;;;;;3.90;2.92;;;;;;;24.18;nan;62409.31;5030303;28;20500;-64
2023/07/16 01:12:57;;;;;;;4.43;3.10;;;;;;;23.39;nan;62017.00;5031123;28;20243;-62
2023/07/16 01:15:23;;;;;;;5.57;3.60;;;;;;;23.91;nan;62230.19;5031413;28;20195;-64
2023/07/16 01:17:48;;;;;;;4.45;3.10;;;;;;;24.09;nan;62154.09;5034559;28;20341;-66
2023/07/16 01:20:14;;;;;;;4.43;3.30;;;;;;;24.16;nan;62143.25;5035103;28;20669;-62
2023/07/16 01:22:49;;;;;;;4.32;3.20;;;;;;;24.22;nan;62178.25;5034906;28;20186;-66
2023/07/16 01:25:36;;;;;;;4.18;3.00;;;;;;;24.08;nan;62235.97;5034966;28;20163;-62
2023/07/16 01:28:26;;;;;;;4.60;3.22;;;;;;;24.18;nan;62216.06;5034975;28;20191;-65
2023/07/16 01:30:55;;;;;;;4.63;3.03;;;;;;;23.82;nan;62216.72;5034896;28;20176;-66
2023/07/16 01:33:21;;;;;;;5.05;3.38;;;;;;;24.00;nan;62203.91;5034799;28;20635;-61
2023/07/16 01:35:47;;;;;;;5.28;3.50;;;;;;;23.98;nan;62151.44;5034917;28;20656;-66
2023/07/16 01:38:13;;;;;;;3.90;3.22;;;;;;;24.01;nan;62120.94;5034707;28;20271;-66
2023/07/16 01:40:38;;;;;;;5.40;3.05;;;;;;;24.13;nan;62132.56;5033866;28;20258;-63
2023/07/16 01:43:04;;;;;;;4.65;3.00;;;;;;;24.09;nan;62132.66;5032901;28;20581;-63
2023/07/16 01:45:29;;;;;;;3.80;3.05;;;;;;;24.09;nan;62132.66;5031485;28;20167;-63
2023/07/16 01:48:22;;;;;;;5.57;3.35;;;;;;;24.20;nan;62268.53;5033652;28;20170;-65
2023/07/16 01:50:47;;;;;;;5.32;3.25;;;;;;;23.77;nan;62047.75;5033443;28;20662;-64
2023/07/16 01:53:13;;;;;;;5.47;2.90;;;;;;;23.96;nan;62123.63;5033318;28;20171;-62
2023/07/16 01:55:38;;;;;;;5.55;3.53;;;;;;;23.59;nan;62170.19;5034228;28;20167;-64
2023/07/16 01:58:05;;;;;;;4.25;2.95;;;;;;;23.51;nan;62070.34;5034686;28;20221;-62
2023/07/16 02:00:30;;;;;;;4.82;2.90;;;;;;;23.55;nan;62033.16;5034511;28;20229;-64
2023/07/16 02:02:56;;;;;;;5.38;3.60;;;;;;;23.69;nan;62302.22;5049905;28;20639;-64
2023/07/16 02:05:21;;;;;;;4.97;3.25;;;;;;;23.59;nan;62029.88;5034458;28;20198;-64
2023/07/16 02:07:46;;;;;;;7.05;3.35;;;;;;;23.54;nan;62164.50;5035144;28;20548;-63
2023/07/16 02:10:12;;;;;;;5.25;3.10;;;;;;;23.52;nan;62074.09;5034494;28;20262;-65
2023/07/16 02:12:37;;;;;;;4.20;2.90;;;;;;;23.59;nan;62034.53;5034656;28;20183;-62
2023/07/16 02:15:03;;;;;;;4.75;3.28;;;;;;;23.73;nan;62220.66;5034401;28;20168;-63
2023/07/16 02:17:28;;;;;;;5.40;3.42;;;;;;;23.70;nan;62078.94;5034330;28;20192;-62
2023/07/16 02:19:54;;;;;;;5.10;3.35;;;;;;;23.88;nan;62083.19;5034121;28;20179;-66
2023/07/16 02:22:20;;;;;;;4.85;3.25;;;;;;;20.34;nan;61732.19;5034095;28;20175;-64
2023/07/16 02:24:45;;;;;;;4.55;3.13;;;;;;;24.05;nan;62148.97;5034340;28;20212;-65
2023/07/16 02:27:10;;;;;;;3.78;3.08;;;;;;;24.04;nan;62148.44;5033582;28;20203;-65
2023/07/16 02:29:36;;;;;;;5.18;3.53;;;;;;;23.76;nan;62077.94;5033405;28;20178;-63
2023/07/16 02:32:01;;;;;;;5.50;3.20;;;;;;;24.12;nan;62160.16;5033934;28;20610;-66
2023/07/16 02:34:27;;;;;;;4.45;2.90;;;;;;;23.95;nan;62127.72;5034113;28;20167;-65
2023/07/16 02:36:52;;;;;;;4.10;3.15;;;;;;;23.80;nan;62094.41;5033637;28;20744;-65
2023/07/16 02:39:17;;;;;;;5.10;3.20;;;;;;;23.88;nan;62075.38;5034156;28;20677;-62
2023/07/16 02:41:43;;;;;;;5.10;3.38;;;;;;;24.00;nan;62080.66;5033653;28;20194;-65
2023/07/16 02:44:09;;;;;;;4.45;3.08;;;;;;;23.71;nan;62077.47;5034156;28;20268;-65
2023/07/16 02:46:34;;;;;;;6.20;3.40;;;;;;;23.65;nan;62046.59;5033891;28;20647;-64
2023/07/16 02:49:00;;;;;;;4.35;3.17;;;;;;;23.20;nan;62012.16;5033740;28;20175;-64
2023/07/16 02:51:25;;;;;;;5.72;4.00;;;;;;;23.35;nan;62133.53;5033474;28;20170;-65
2023/07/16 02:53:51;;;;;;;5.28;3.40;;;;;;;23.80;nan;62057.88;5033634;28;20194;-66
2023/07/16 02:56:16;;;;;;;4.60;3.58;;;;;;;24.00;nan;62154.28;5033999;28;20163;-65
2023/07/16 02:58:42;;;;;;;5.03;3.38;;;;;;;23.80;nan;62225.47;5033349;28;20179;-63
2023/07/16 03:01:07;;;;;;;4.72;3.40;;;;;;;24.01;nan;62113.09;5033485;28;20282;-64
2023/07/16 03:03:33;;;;;;;4.75;3.30;;;;;;;23.24;nan;62143.91;5033766;28;20296;-63
2023/07/16 03:05:58;;;;;;;5.97;2.97;;;;;;;23.72;nan;62153.72;5033423;28;20178;-64
2023/07/16 03:08:26;;;;;;;7.32;3.38;;;;;;;23.99;nan;62129.09;5032971;28;20167;-65
2023/07/16 03:10:51;;;;;;;5.30;3.13;;;;;;;23.91;nan;62070.38;5033340;28;20273;-61
2023/07/16 03:13:17;;;;;;;4.97;3.30;;;;;;;24.07;nan;62122.53;5033342;28;20206;-65
2023/07/16 03:15:42;;;;;;;4.43;3.38;;;;;;;24.22;nan;62322.47;5033553;28;20202;-63
2023/07/16 03:18:07;;;;;;;4.47;3.05;;;;;;;24.57;nan;62129.88;5033128;28;20210;-62
2023/07/16 03:20:33;;;;;;;4.82;3.40;;;;;;;24.67;nan;62184.56;5033032;28;20627;-64
2023/07/16 03:22:58;;;;;;;4.68;3.28;;;;;;;22.60;nan;61990.78;5032791;28;20187;-65
2023/07/16 03:25:23;;;;;;;4.60;3.33;;;;;;;25.50;nan;62352.47;5032931;28;20171;-65
2023/07/16 03:27:49;;;;;;;4.97;3.42;;;;;;;26.01;nan;62388.66;5033272;28;20182;-62
2023/07/16 03:30:14;;;;;;;4.47;3.40;;;;;;;26.19;nan;62453.75;5033115;28;20176;-63
2023/07/16 03:32:40;;;;;;;5.43;3.55;;;;;;;26.79;nan;62500.81;5033278;28;20201;-64
2023/07/16 03:35:05;;;;;;;4.45;3.38;;;;;;;27.20;nan;62544.53;5033278;28;20215;-63
2023/07/16 03:37:31;;;;;;;7.28;3.58;;;;;;;27.93;nan;62784.03;5032481;28;20585;-63
2023/07/16 03:39:56;;;;;;;4.47;3.05;;;;;;;28.47;nan;62722.41;5032636;28;20309;-63
2023/07/16 03:42:22;;;;;;;4.95;3.28;;;;;;;28.77;nan;62829.91;5032782;28;20194;-64
2023/07/16 03:44:47;;;;;;;6.03;3.92;;;;;;;28.96;nan;62822.75;5033025;28;20175;-62
2023/07/16 03:47:13;;;;;;;4.97;3.58;;;;;;;29.70;nan;62977.69;5032716;28;20191;-63
2023/07/16 03:49:38;;;;;;;6.50;3.83;;;;;;;29.90;nan;62978.47;5032607;28;20250;-64
2023/07/16 03:52:04;;;;;;;5.50;3.55;;;;;;;30.54;nan;63110.13;5032113;28;20182;-65
2023/07/16 03:54:29;;;;;;;6.60;3.50;;;;;;;30.83;nan;63140.28;5032193;28;20179;-63
2023/07/16 03:56:55;;;;;;;5.88;3.58;;;;;;;31.74;nan;63267.75;5032952;28;20191;-64
2023/07/16 03:59:20;;;;;;;5.18;3.78;;;;;;;32.31;nan;63467.91;5032409;28;20179;-63
2023/07/16 04:01:46;;;;;;;7.45;3.55;;;;;;;32.74;nan;63354.91;5032347;28;20175;-65
2023/07/16 04:04:11;;;;;;;4.03;3.13;;;;;;;33.22;nan;63473.31;5032565;28;20218;-64
2023/07/16 04:06:36;;;;;;;5.43;3.65;;;;;;;33.46;nan;63538.16;5032280;28;20613;-65
2023/07/16 04:09:02;;;;;;;4.22;3.40;;;;;;;33.90;nan;63596.41;5032463;28;20171;-63
2023/07/16 04:11:27;;;;;;;4.38;3.42;;;;;;;33.71;nan;63514.03;5032268;28;20701;-62
2023/07/16 04:13:53;;;;;;;4.25;3.20;;;;;;;34.41;nan;63710.03;5032310;28;20178;-63
2023/07/16 04:16:18;;;;;;;4.15;3.33;;;;;;;34.80;nan;63760.56;5031968;28;20163;-63
2023/07/16 04:18:43;;;;;;;4.78;3.47;;;;;;;34.75;nan;63762.16;5030701;28;20175;-62
2023/07/16 04:21:09;;;;;;;5.40;3.50;;;;;;;35.05;nan;63820.25;5032312;28;20205;-61
2023/07/16 04:23:35;;;;;;;4.30;3.22;;;;;;;35.13;nan;63899.22;5032145;28;20313;-63
2023/07/16 04:26:00;;;;;;;6.45;3.72;;;;;;;34.89;nan;63879.34;5030990;28;20175;-63
2023/07/16 04:28:26;;;;;;;4.93;3.47;;;;;;;35.05;nan;63935.16;5031926;28;20178;-65
2023/07/16 04:30:51;;;;;;;4.30;3.10;;;;;;;34.40;nan;63682.91;5032157;28;20255;-64
2023/07/16 04:33:18;;;;;;;5.55;4.03;;;;;;;34.13;nan;63749.84;5032117;28;20178;-63
2023/07/16 04:35:44;;;;;;;4.65;3.17;;;;;;;33.71;nan;63648.75;5031639;28;20178;-64
2023/07/16 04:38:09;;;;;;;5.15;3.63;;;;;;;33.61;nan;63592.06;5031990;28;20198;-64
2023/07/16 04:40:35;;;;;;;5.05;3.28;;;;;;;32.75;nan;63409.00;5030932;28;20167;-63
2023/07/16 04:43:00;;;;;;;6.38;3.50;;;;;;;32.17;nan;63359.13;5031612;28;20693;-64
2023/07/16 04:45:25;;;;;;;4.63;3.70;;;;;;;32.31;nan;63586.41;5031485;28;20193;-65
2023/07/16 04:47:51;;;;;;;6.88;3.97;;;;;;;32.34;nan;63349.63;5030384;28;20254;-64
2023/07/16 04:50:16;;;;;;;6.60;3.67;;;;;;;32.26;nan;63377.44;5031162;28;20202;-65
2023/07/16 04:52:42;;;;;;;5.43;4.20;;;;;;;32.10;nan;63331.94;5035268;28;20171;-65
2023/07/16 04:55:07;;;;;;;4.43;3.65;;;;;;;32.02;nan;63317.97;5035738;28;20179;-65
2023/07/16 04:57:33;;;;;;;5.43;3.72;;;;;;;32.05;nan;63368.50;5035455;28;20201;-62
2023/07/16 04:59:59;;;;;;;4.85;3.60;;;;;;;31.96;nan;63274.03;5034234;28;20244;-63
2023/07/16 05:02:24;;;;;;;6.32;3.88;;;;;;;32.37;nan;63453.63;5035044;28;20175;-65
2023/07/16 05:04:50;;;;;;;5.68;4.03;;;;;;;32.78;nan;63447.50;5035329;28;20171;-66
2023/07/16 05:07:15;;;;;;;6.07;4.03;;;;;;;33.09;nan;63538.38;5035367;28;20232;-65
2023/07/16 05:09:44;;;;;;;6.50;4.00;;;;;;;33.29;nan;63621.91;5035281;28;20254;-63
2023/07/16 05:12:10;;;;;;;5.07;3.88;;;;;;;33.15;nan;63518.25;5035032;28;20167;-64
2023/07/16 05:14:46;;;;;;;6.13;4.38;;;;;;;33.49;nan;63596.72;5034121;28;20224;-66
2023/07/16 05:17:13;;;;;;;5.35;3.72;;;;;;;33.44;nan;63630.72;5033659;28;20190;-64
2023/07/16 05:19:38;;;;;;;7.07;4.22;;;;;;;33.22;nan;63595.81;5033782;28;20685;-63
2023/07/16 05:22:04;;;;;;;5.65;4.00;;;;;;;33.08;nan;63486.84;5034242;28;20171;-62
2023/07/16 05:24:31;;;;;;;5.05;3.88;;;;;;;32.96;nan;63565.16;5033937;28;20166;-64
2023/07/16 05:26:56;;;;;;;5.90;3.90;;;;;;;32.79;nan;63467.19;5034254;28;20175;-62
2023/07/16 05:29:21;;;;;;;6.32;3.97;;;;;;;32.50;nan;63438.97;5035533;28;20237;-62
2023/07/16 05:31:47;;;;;;;7.25;3.63;;;;;;;32.57;nan;63470.88;5035119;28;20194;-63
2023/07/16 05:34:13;;;;;;;6.95;3.70;;;;;;;32.28;nan;63363.84;5034857;28;20224;-62
2023/07/16 05:36:38;;;;;;;7.00;3.53;;;;;;;32.47;nan;63488.44;5035128;28;20194;-64
2023/07/16 05:39:03;;;;;;;5.65;4.07;;;;;;;33.16;nan;63572.97;5035539;28;20178;-64
2023/07/16 05:41:29;;;;;;;6.10;4.10;;;;;;;33.34;nan;63619.75;5034931;28;20664;-63
2023/07/16 05:43:54;;;;;;;4.93;3.65;;;;;;;32.75;nan;63464.63;5034725;28;20185;-63
2023/07/16 05:46:19;;;;;;;5.32;3.78;;;;;;;32.60;nan;63457.91;5034845;28;20170;-64
2023/07/16 05:48:45;;;;;;;10.35;4.25;;;;;;;32.22;nan;63488.69;5034764;28;20171;-64
2023/07/16 05:51:10;;;;;;;5.38;3.67;;;;;;;32.22;nan;63394.00;5034879;28;20631;-65
2023/07/16 05:53:35;;;;;;;5.35;3.85;;;;;;;32.17;nan;63424.69;5034952;28;20177;-60
2023/07/16 05:56:01;;;;;;;6.00;4.05;;;;;;;31.75;nan;63271.56;5034717;28;20228;-60
2023/07/16 05:58:26;;;;;;;6.90;4.03;;;;;;;31.74;nan;63293.63;5034674;28;20199;-62
2023/07/16 06:00:52;;;;;;;7.18;3.95;;;;;;;31.49;nan;63291.81;5034491;28;20232;-60
2023/07/16 06:03:18;;;;;;;6.85;4.82;;;;;;;30.96;nan;63088.66;5034044;28;20222;-66
2023/07/16 06:05:44;;;;;;;5.05;3.75;;;;;;;30.98;nan;63199.22;5034536;28;20697;-62
2023/07/16 06:08:09;;;;;;;5.20;3.97;;;;;;;30.88;nan;63158.66;5034755;28;20262;-63
2023/07/16 06:10:35;;;;;;;5.63;4.03;;;;;;;30.67;nan;63153.53;5034496;28;20543;-60
2023/07/16 06:13:00;;;;;;;4.72;3.70;;;;;;;30.17;nan;63126.13;5034530;28;20174;-66
2023/07/16 06:15:25;;;;;;;5.63;4.22;;;;;;;29.88;nan;63066.38;5020364;28;20647;-61
2023/07/16 06:17:51;;;;;;;5.95;4.30;;;;;;;29.55;nan;62984.16;5023773;28;20191;-60
2023/07/16 06:20:17;;;;;;;4.93;3.97;;;;;;;29.77;nan;62900.84;5024348;28;20190;-59
2023/07/16 06:22:42;;;;;;;5.57;4.20;;;;;;;29.34;nan;62867.88;5027700;28;20502;-62
2023/07/16 06:25:10;;;;;;;5.43;4.22;;;;;;;29.45;nan;62880.50;5034653;28;20159;-66
2023/07/16 06:27:36;;;;;;;6.60;4.30;;;;;;;28.75;nan;63035.47;5032263;28;20575;-61
2023/07/16 06:30:02;;;;;;;6.40;4.50;;;;;;;29.38;nan;62906.69;5033856;28;20193;-60
2023/07/16 06:32:27;;;;;;;5.13;4.03;;;;;;;29.33;nan;62956.25;5033638;28;20618;-63
2023/07/16 06:34:53;;;;;;;8.15;4.45;;;;;;;29.60;nan;62997.81;5033822;28;20159;-63
2023/07/16 06:37:18;;;;;;;6.38;4.43;;;;;;;29.85;nan;62931.09;5033447;28;20218;-61
2023/07/16 06:39:43;;;;;;;4.72;3.80;;;;;;;30.14;nan;63032.44;5033679;28;20175;-61
2023/07/16 06:42:09;;;;;;;6.07;4.20;;;;;;;30.42;nan;63098.34;5033511;28;20621;-62
2023/07/16 06:44:35;;;;;;;6.10;4.50;;;;;;;30.56;nan;63156.72;5033471;28;20171;-62
2023/07/16 06:47:01;;;;;;;6.05;4.18;;;;;;;30.61;nan;63123.44;5032797;28;20182;-62
2023/07/16 06:49:26;;;;;;;6.15;4.20;;;;;;;30.78;nan;63089.06;5033626;28;20167;-61
2023/07/16 06:51:52;;;;;;;6.72;3.95;;;;;;;31.02;nan;63196.50;5033620;28;20173;-62
2023/07/16 06:54:17;;;;;;;7.28;4.40;;;;;;;30.68;nan;63062.88;5033164;28;20210;-63
2023/07/16 06:56:42;;;;;;;6.07;4.20;;;;;;;30.34;nan;63068.59;5032971;28;20195;-61
2023/07/16 06:59:08;;;;;;;6.47;4.47;;;;;;;30.16;nan;62966.16;5033056;28;20712;-62
2023/07/16 07:01:33;;;;;;;8.32;4.22;;;;;;;30.23;nan;63029.59;5033111;28;20167;-62
2023/07/16 07:03:59;;;;;;;5.00;3.72;;;;;;;30.21;nan;62987.72;5033053;28;20227;-61
2023/07/16 07:06:24;;;;;;;5.57;4.28;;;;;;;30.03;nan;62993.41;5032808;28;20174;-62
2023/07/16 07:08:49;;;;;;;6.38;4.55;;;;;;;30.25;nan;62992.31;5032402;28;20536;-61
2023/07/16 07:11:15;;;;;;;6.55;4.40;;;;;;;30.28;nan;63109.78;5032723;28;20202;-62
2023/07/16 07:13:40;;;;;;;5.30;4.10;;;;;;;30.24;nan;63178.44;5032318;28;20649;-59
2023/07/16 07:16:05;;;;;;;7.10;4.15;;;;;;;30.69;nan;63116.81;5032205;28;20163;-61
2023/07/16 07:18:31;;;;;;;5.18;3.83;;;;;;;30.69;nan;63079.88;5032560;28;20199;-63
2023/07/16 07:20:56;;;;;;;5.72;3.70;;;;;;;30.62;nan;63061.25;5032669;28;20167;-61
2023/07/16 07:23:22;;;;;;;6.63;4.18;;;;;;;30.63;nan;63178.53;5032434;28;20178;-61
2023/07/16 07:25:51;;;;;;;6.93;3.90;;;;;;;30.91;nan;63099.31;5032323;28;20167;-62
2023/07/16 07:28:17;;;;;;;5.45;3.90;;;;;;;30.80;nan;63237.13;5032673;28;20216;-61
2023/07/16 07:30:42;;;;;;;4.72;3.78;;;;;;;31.15;nan;63250.53;5032296;28;20271;-61
2023/07/16 07:33:07;;;;;;;5.70;3.78;;;;;;;31.17;nan;63273.97;5032483;28;20174;-63
2023/07/16 07:35:33;;;;;;;5.13;3.83;;;;;;;31.17;nan;63287.16;5032156;28;20183;-61
2023/07/16 07:37:58;;;;;;;5.05;3.67;;;;;;;30.93;nan;63161.78;5032120;28;20193;-61
2023/07/16 07:40:25;;;;;;;5.55;3.90;;;;;;;30.43;nan;63137.00;5031649;28;20225;-60
2023/07/16 07:42:50;;;;;;;4.50;3.47;;;;;;;26.15;nan;64495.97;5031651;28;20260;-62
2023/07/16 07:45:16;;;;;;;4.38;3.35;;;;;;;29.67;nan;62924.19;5031515;28;20202;-60
2023/07/16 07:47:41;;;;;;;4.80;3.40;;;;;;;29.71;nan;63021.03;5031774;28;20182;-61
2023/07/16 07:50:07;;;;;;;5.85;3.67;;;;;;;29.66;nan;62928.31;5031770;28;20178;-62
2023/07/16 07:52:32;;;;;;;5.07;3.58;;;;;;;29.61;nan;62972.06;5032179;28;20202;-59
2023/07/16 07:54:58;;;;;;;7.05;3.65;;;;;;;29.94;nan;62977.78;5031858;28;20209;-59
2023/07/16 07:57:23;;;;;;;5.45;3.50;;;;;;;30.14;nan;62988.19;5031891;28;20281;-58
2023/07/16 07:59:51;;;;;;;5.57;3.92;;;;;;;30.15;nan;63013.03;5031734;28;20638;-61
2023/07/16 08:02:18;;;;;;;4.65;3.60;;;;;;;30.73;nan;63157.81;5031914;28;20171;-62
2023/07/16 08:04:44;;;;;;;6.20;3.88;;;;;;;30.68;nan;63068.16;5031806;28;20226;-60
2023/07/16 08:07:09;;;;;;;5.95;3.70;;;;;;;30.57;nan;63052.28;5031933;28;20201;-63
2023/07/16 08:09:37;;;;;;;5.57;3.65;;;;;;;30.67;nan;63016.28;5030744;28;20186;-62
2023/07/16 08:12:03;;;;;;;4.60;2.97;;;;;;;30.70;nan;63133.25;5031704;28;20178;-61
2023/07/16 08:14:29;;;;;;;4.97;3.90;;;;;;;30.36;nan;63152.69;5031486;28;20201;-62
2023/07/16 08:16:54;;;;;;;4.80;3.65;;;;;;;30.29;nan;63023.28;5031659;28;20665;-61
2023/07/16 08:19:19;;;;;;;5.80;3.47;;;;;;;30.66;nan;63139.19;5031575;28;20177;-63
2023/07/16 08:21:45;;;;;;;5.03;3.97;;;;;;;29.88;nan;62947.16;5031564;28;20531;-61
2023/07/16 08:24:10;;;;;;;7.20;3.65;;;;;;;30.66;nan;63102.22;5031526;28;20175;-60
2023/07/16 08:26:35;;;;;;;5.28;3.58;;;;;;;30.76;nan;63071.50;5029274;28;20171;-61
2023/07/16 08:29:02;;;;;;;4.85;3.67;;;;;;;31.31;nan;63224.03;5022348;28;20564;-59
2023/07/16 08:31:28;;;;;;;4.65;3.55;;;;;;;30.84;nan;63130.31;5022866;28;20174;-62
2023/07/16 08:33:53;;;;;;;7.95;3.75;;;;;;;30.77;nan;62963.84;5031303;28;20163;-63
2023/07/16 08:36:18;;;;;;;5.20;3.88;;;;;;;31.49;nan;63292.34;5031172;28;20174;-61
2023/07/16 08:38:44;;;;;;;4.85;3.63;;;;;;;31.69;nan;63349.25;5031508;28;20202;-62
2023/07/16 08:41:10;;;;;;;5.78;3.88;;;;;;;31.69;nan;63386.25;5031068;28;20268;-61
2023/07/16 08:43:35;;;;;;;7.30;3.65;;;;;;;31.95;nan;63355.44;5022548;28;20647;-63
2023/07/16 08:46:01;;;;;;;5.47;3.85;;;;;;;31.67;nan;63294.06;5011482;28;20273;-62
2023/07/16 08:48:28;;;;;;;5.68;3.95;;;;;;;31.75;nan;63189.59;5011544;28;20168;-62
2023/07/16 08:50:57;;;;;;;5.60;3.80;;;;;;;31.76;nan;63264.22;5011100;28;20175;-60
2023/07/16 08:53:23;;;;;;;5.82;3.92;;;;;;;31.77;nan;63233.63;5011663;28;20172;-62
2023/07/16 08:55:49;;;;;;;5.13;3.72;;;;;;;32.05;nan;63355.81;5011617;28;20270;-62
2023/07/16 08:58:15;;;;;;;5.80;3.67;;;;;;;32.30;nan;63337.06;5011333;28;20258;-61
2023/07/16 09:00:49;;;;;;;6.13;4.30;;;;;;;32.32;nan;63471.69;5011685;28;20186;-62
2023/07/16 09:03:18;;;;;;;5.90;3.85;;;;;;;32.52;nan;63403.63;5011280;28;20305;-63
2023/07/16 09:05:47;;;;;;;5.30;3.75;;;;;;;32.54;nan;63438.28;5011433;28;20225;-61
2023/07/16 09:08:13;;;;;;;4.70;3.38;;;;;;;32.04;nan;63338.81;5011309;28;20160;-60
2023/07/16 09:10:41;;;;;;;5.72;4.10;;;;;;;31.56;nan;63297.81;5011141;28;20566;-60
2023/07/16 09:13:07;;;;;;;4.30;3.30;;;;;;;31.55;nan;63349.53;5011447;28;20183;-62
2023/07/16 09:15:34;;;;;;;4.75;3.45;;;;;;;31.55;nan;63227.94;5011482;28;20179;-61
2023/07/16 09:18:00;;;;;;;5.13;3.78;;;;;;;31.75;nan;63358.25;5011018;28;20294;-61
2023/07/16 09:20:27;;;;;;;6.22;4.28;;;;;;;31.40;nan;63255.00;5010939;28;20168;-63
2023/07/16 09:22:57;;;;;;;5.63;3.95;;;;;;;31.68;nan;63249.69;5011050;28;20168;-63
2023/07/16 09:25:29;;;;;;;6.85;3.90;;;;;;;31.32;nan;63333.53;5010455;28;20619;-60
2023/07/16 09:28:00;;;;;;;7.57;3.65;;;;;;;31.89;nan;63319.44;5011474;28;20159;-62
2023/07/16 09:30:34;;;;;;;6.18;4.05;;;;;;;32.04;nan;63338.22;5043387;28;20168;-60
2023/07/16 09:33:19;;;;;;;6.97;3.70;;;;;;;32.20;nan;63393.75;5011431;28;20263;-63
2023/07/16 09:35:48;;;;;;;6.68;4.55;;;;;;;32.22;nan;63412.50;5011247;28;20238;-61
2023/07/16 09:38:13;;;;;;;5.65;3.95;;;;;;;32.41;nan;63386.22;5013769;28;20191;-62
2023/07/16 09:40:42;;;;;;;5.75;4.13;;;;;;;32.29;nan;63383.53;5014888;28;20236;-61
2023/07/16 09:43:09;;;;;;;6.95;4.28;;;;;;;31.96;nan;63356.00;5014869;28;20164;-62
2023/07/16 09:45:34;;;;;;;7.18;4.18;;;;;;;32.03;nan;63395.84;5014726;28;20179;-60
2023/07/16 09:48:00;;;;;;;5.50;4.20;;;;;;;32.48;nan;63436.66;5014537;28;20183;-60
2023/07/16 09:50:29;;;;;;;5.93;4.25;;;;;;;32.49;nan;63426.66;5014147;28;20639;-62
2023/07/16 09:52:56;;;;;;;6.30;4.50;;;;;;;31.94;nan;63364.31;5014474;28;20175;-61
2023/07/16 09:55:23;;;;;;;6.57;4.70;;;;;;;32.09;nan;63310.19;5014691;28;20226;-62
2023/07/16 09:57:52;;;;;;;7.03;4.82;;;;;;;32.37;nan;63418.69;5014426;28;20195;-61
2023/07/16 10:00:18;;;;;;;7.32;4.55;;;;;;;32.30;nan;63524.97;5014001;28;20619;-61
2023/07/16 10:02:44;;;;;;;6.50;4.55;;;;;;;32.39;nan;63376.56;5014029;28;20227;-62
2023/07/16 10:05:27;;;;;;;7.93;5.55;;;;;;;32.04;nan;63581.59;5014412;28;20247;-61
2023/07/16 10:07:59;;;;;;;6.07;4.25;;;;;;;32.34;nan;63354.31;5014457;28;20618;-60
2023/07/16 10:10:39;;;;;;;6.45;4.80;;;;;;;32.55;nan;63452.13;5014547;28;20167;-61
2023/07/16 10:13:06;;;;;;;7.00;5.00;;;;;;;32.70;nan;63451.50;5014339;28;20577;-62
2023/07/16 10:15:31;;;;;;;8.18;5.13;;;;;;;32.84;nan;63538.59;5014633;28;20241;-61
2023/07/16 10:17:57;;;;;;;9.00;5.72;;;;;;;32.77;nan;63541.09;5013907;28;20204;-61
2023/07/16 10:20:32;;;;;;;7.25;5.65;;;;;;;32.94;nan;63520.44;5014304;28;20183;-65
2023/07/16 10:22:59;;;;;;;7.07;4.88;;;;;;;33.00;nan;63501.47;5014222;28;20250;-63
2023/07/16 10:25:27;;;;;;;6.97;5.10;;;;;;;32.83;nan;63673.09;5014183;28;20275;-62
2023/07/16 10:27:54;;;;;;;7.03;5.35;;;;;;;33.01;nan;63555.63;5013765;28;20171;-61
2023/07/16 10:30:21;;;;;;;10.55;6.03;;;;;;;33.17;nan;63590.03;5017350;28;20229;-60
2023/07/16 10:32:46;;;;;;;9.07;5.50;;;;;;;32.78;nan;63436.34;5025216;28;20262;-62
2023/07/16 10:35:13;;;;;;;8.57;5.82;;;;;;;32.81;nan;63429.19;5024654;28;20708;-61
2023/07/16 10:37:39;;;;;;;10.07;6.18;;;;;;;33.09;nan;63480.06;5023563;28;20187;-62
2023/07/16 10:40:09;;;;;;;10.57;5.68;;;;;;;32.41;nan;63478.88;5022723;28;20642;-60
2023/07/16 10:42:34;;;;;;;8.50;5.75;;;;;;;32.62;nan;63468.13;5024039;28;20250;-61
2023/07/16 10:45:09;;;;;;;7.82;5.45;;;;;;;32.78;nan;63510.50;5023089;28;20270;-60
2023/07/16 10:47:37;;;;;;;7.78;5.53;;;;;;;32.38;nan;63436.28;5013958;28;20170;-60
2023/07/16 10:50:10;;;;;;;10.88;6.28;;;;;;;32.58;nan;63434.97;5020656;28;20210;-61
2023/07/16 10:52:37;;;;;;;7.93;5.30;;;;;;;32.93;nan;63443.03;5024139;28;20182;-62
2023/07/16 10:55:03;;;;;;;8.63;5.88;;;;;;;33.21;nan;63631.19;5023415;28;20183;-63
2023/07/16 10:57:28;;;;;;;7.20;5.30;;;;;;;33.67;nan;63628.75;5018959;28;20686;-62
2023/07/16 10:59:57;;;;;;;8.02;5.28;;;;;;;33.40;nan;63551.84;5015609;28;20183;-69
2023/07/16 11:02:24;;;;;;;9.13;5.82;;;;;;;32.23;nan;63331.06;5013651;28;20171;-62
2023/07/16 11:04:50;;;;;;;7.32;5.70;;;;;;;32.78;nan;63446.94;5013781;28;20686;-62
2023/07/16 11:07:16;;;;;;;7.78;5.22;;;;;;;33.19;nan;63552.03;5013628;28;20175;-66
2023/07/16 11:09:48;;;;;;;10.02;5.82;;;;;;;33.81;nan;63583.38;5013477;28;20604;-63
2023/07/16 11:12:16;;;;;;;7.88;5.90;;;;;;;33.98;nan;63735.13;5014014;28;20237;-60
2023/07/16 11:14:51;;;;;;;8.85;5.35;;;;;;;34.26;nan;63804.78;5013424;28;20612;-63
2023/07/16 11:17:16;;;;;;;7.80;5.30;;;;;;;34.49;nan;63801.66;5013466;28;20198;-63
2023/07/16 11:19:46;;;;;;;10.90;5.70;;;;;;;34.60;nan;63767.16;5013404;28;20556;-66
2023/07/16 11:22:11;;;;;;;8.95;5.82;;;;;;;34.76;nan;63809.06;5013221;28;20168;-62
2023/07/16 11:24:45;;;;;;;8.93;6.03;;;;;;;34.77;nan;63812.88;5012766;28;20555;-69
2023/07/16 11:27:22;;;;;;;10.00;5.78;;;;;;;35.12;nan;63953.31;5012678;28;20172;-67
2023/07/16 11:29:55;;;;;;;12.15;6.20;;;;;;;34.87;nan;63885.00;5012755;28;20171;-69
2023/07/16 11:32:43;;;;;;;8.90;6.20;;;;;;;34.49;nan;63759.16;5012264;28;20156;-68
2023/07/16 11:35:14;;;;;;;9.73;5.97;;;;;;;34.49;nan;63708.69;5013070;28;20163;-68
2023/07/16 11:37:40;;;;;;;8.95;5.53;;;;;;;34.52;nan;63741.38;5012792;28;20813;-67
2023/07/16 11:40:08;;;;;;;10.23;5.80;;;;;;;34.64;nan;63903.47;5012413;28;20262;-68
2023/07/16 11:42:37;;;;;;;8.52;5.45;;;;;;;35.07;nan;63899.66;5012826;28;20176;-68
2023/07/16 11:45:03;;;;;;;12.07;5.65;;;;;;;34.97;nan;63885.97;5010598;28;20559;-68
2023/07/16 11:47:29;;;;;;;9.65;5.88;;;;;;;35.03;nan;63807.88;5012304;28;20785;-66